Time;durP1;ratioP1;P1;durP2;ratioP2;P2;SDS_P1;SDS_P2;PMS_P1;PMS_P2;Temp;Humidity;BMP_temperature;BMP_pressure;BME280_temperature;BME280_humidity;BME280_pressure;Samples;Min_cycle;Max_cycle;Signal;HPM_P1;HPM_P2
2022/12/29 00:01:36;;;;;;;15.80;8.68;;;;;;;1.21;100.00;100205.98;1722746;83;20928;-73
2022/12/29 00:04:04;;;;;;;16.27;9.55;;;;;;;1.24;100.00;100210.44;1695838;82;21122;-73
2022/12/29 00:06:30;;;;;;;13.65;8.48;;;;;;;1.22;100.00;100201.77;1736117;82;20974;-73
2022/12/29 00:08:59;;;;;;;15.18;8.68;;;;;;;1.25;100.00;100207.25;1721494;82;21052;-73
2022/12/29 00:11:26;;;;;;;;;;;;;;;1.30;100.00;100202.13;1724666;82;21028;-73
2022/12/29 00:16:44;;;;;;;15.55;8.98;;;;;;;1.20;100.00;100203.84;1698098;83;21551;-73
2022/12/29 00:36:17;;;;;;;13.08;7.30;;;;;;;1.35;100.00;100200.48;1721660;83;20993;-73
2022/12/29 00:44:18;;;;;;;14.18;7.50;;;;;;;1.33;100.00;100174.89;1719025;82;21082;-74
2022/12/29 00:46:45;;;;;;;14.68;7.60;;;;;;;1.31;100.00;100179.10;1721882;83;21498;-74
2022/12/29 00:49:30;;;;;;;12.65;7.37;;;;;;;1.29;100.00;100183.86;1718782;82;21039;-73
2022/12/29 00:52:02;;;;;;;13.53;7.70;;;;;;;1.30;100.00;100181.50;1719907;83;20977;-73
2022/12/29 00:54:33;;;;;;;13.20;7.10;;;;;;;1.28;100.00;100170.13;1652825;86;21111;-73
2022/12/29 00:57:01;;;;;;;15.00;7.03;;;;;;;1.28;100.00;100159.91;1654485;86;21005;-73
2022/12/29 00:59:27;;;;;;;16.67;7.65;;;;;;;1.24;100.00;100159.48;1717020;82;21025;-74
2022/12/29 01:01:54;;;;;;;11.85;6.35;;;;;;;1.25;100.00;100165.16;1720684;83;21070;-74
2022/12/29 01:04:21;;;;;;;12.58;6.62;;;;;;;1.25;100.00;100166.51;1717948;82;21089;-74
2022/12/29 01:06:49;;;;;;;10.00;6.05;;;;;;;1.21;100.00;100161.73;1685496;83;21015;-73
2022/12/29 01:12:02;;;;;;;12.07;6.37;;;;;;;1.18;100.00;100157.61;1720306;82;21430;-74
2022/12/29 01:14:29;;;;;;;12.75;6.80;;;;;;;1.09;100.00;100157.48;1719865;82;21925;-74
2022/12/29 01:16:57;;;;;;;12.10;6.15;;;;;;;1.06;100.00;100157.89;1712870;83;21651;-74
2022/12/29 01:19:23;;;;;;;10.75;6.03;;;;;;;1.02;100.00;100148.59;1714737;82;21652;-74
2022/12/29 01:21:49;;;;;;;9.93;5.87;;;;;;;0.99;100.00;100150.33;1720280;82;21021;-74
2022/12/29 01:24:18;;;;;;;10.88;5.78;;;;;;;0.95;100.00;100138.35;1720534;82;21098;-73
2022/12/29 01:26:44;;;;;;;11.15;6.10;;;;;;;0.90;100.00;100131.41;1724933;82;21552;-73
2022/12/29 01:29:11;;;;;;;;;;;;;;;0.87;100.00;100125.11;1688120;84;21052;-73
2022/12/29 01:31:37;;;;;;;10.60;5.67;;;;;;;0.86;100.00;100120.77;1661117;85;20113;-73
2022/12/29 01:34:04;;;;;;;11.35;5.50;;;;;;;0.72;100.00;100107.00;1718797;83;21090;-74
2022/12/29 01:36:32;;;;;;;9.03;5.12;;;;;;;0.69;100.00;100124.31;1722008;83;21049;-74
2022/12/29 01:38:59;;;;;;;;;;;;;;;0.66;100.00;100119.86;1718744;82;21055;-73
2022/12/29 01:41:25;;;;;;;10.13;5.25;;;;;;;0.66;100.00;100126.55;1720783;83;20113;-74
2022/12/29 01:43:56;;;;;;;9.45;5.30;;;;;;;0.58;100.00;100120.02;1720600;82;21586;-73
2022/12/29 01:46:42;;;;;;;9.43;5.03;;;;;;;0.57;100.00;100109.00;1712917;82;21595;-73
2022/12/29 01:49:15;;;;;;;10.43;5.90;;;;;;;0.54;100.00;100112.05;1696844;82;21058;-75
2022/12/29 01:51:52;;;;;;;8.68;5.22;;;;;;;0.53;100.00;100121.97;1696484;84;21547;-75
2022/12/29 01:54:27;;;;;;;11.00;5.20;;;;;;;0.53;100.00;100112.59;1724338;80;21572;-75
2022/12/29 01:56:55;;;;;;;11.45;5.55;;;;;;;0.53;100.00;100107.74;1713773;82;21086;-75
2022/12/29 01:59:25;;;;;;;11.60;6.03;;;;;;;0.52;100.00;100111.44;1715192;82;21120;-72
2022/12/29 02:01:52;;;;;;;10.18;5.25;;;;;;;0.49;100.00;100115.34;1721294;82;21086;-75
2022/12/29 02:04:19;;;;;;;13.93;6.05;;;;;;;0.48;100.00;100104.31;1722205;82;21110;-73
2022/12/29 02:06:52;;;;;;;11.75;5.03;;;;;;;0.48;100.00;100101.63;1715553;82;21038;-72
2022/12/29 02:09:19;;;;;;;9.30;5.37;;;;;;;0.50;100.00;100099.56;1717644;82;21090;-73
2022/12/29 02:11:46;;;;;;;10.88;5.75;;;;;;;0.49;100.00;100097.42;1714822;82;21042;-73
2022/12/29 02:14:13;;;;;;;12.43;5.15;;;;;;;0.50;100.00;100095.55;1716988;82;21401;-73
2022/12/29 02:17:11;;;;;;;8.93;5.28;;;;;;;0.51;100.00;100093.19;1714537;82;21057;-73
2022/12/29 02:20:18;;;;;;;10.70;5.08;;;;;;;0.51;100.00;100094.53;1715684;82;21630;-73
2022/12/29 02:23:14;;;;;;;9.60;4.62;;;;;;;0.51;100.00;100093.19;1708529;82;21144;-74
2022/12/29 02:26:13;;;;;;;8.83;4.50;;;;;;;0.52;100.00;100092.17;1698961;82;21085;-74
2022/12/29 02:28:57;;;;;;;8.13;3.92;;;;;;;0.53;100.00;100094.34;1715214;82;21062;-74
2022/12/29 02:31:44;;;;;;;8.75;4.60;;;;;;;0.50;100.00;100084.83;1719898;82;21003;-74
2022/12/29 02:34:33;;;;;;;11.20;4.78;;;;;;;0.48;100.00;100074.84;1717839;82;21114;-74
2022/12/29 02:37:32;;;;;;;8.38;4.60;;;;;;;0.48;100.00;100078.86;1721627;82;21007;-74
2022/12/29 02:40:16;;;;;;;7.33;4.00;;;;;;;0.45;100.00;100068.55;1709490;82;20970;-75
2022/12/29 02:42:57;;;;;;;9.13;3.87;;;;;;;0.45;100.00;100066.70;1698568;83;21066;-75
2022/12/29 02:45:32;;;;;;;9.73;4.35;;;;;;;0.45;100.00;100061.34;1697446;83;21062;-74
2022/12/29 02:48:28;;;;;;;7.55;4.00;;;;;;;0.47;100.00;100056.60;1719726;83;21050;-75
2022/12/29 02:51:03;;;;;;;9.35;4.55;;;;;;;0.52;100.00;100055.19;1716301;82;21660;-75
2022/12/29 02:56:18;;;;;;;9.38;4.20;;;;;;;0.52;100.00;100048.48;1714444;83;21027;-75
2022/12/29 02:58:46;;;;;;;9.93;4.30;;;;;;;0.52;100.00;100044.47;1714334;82;21022;-75
2022/12/29 03:02:16;;;;;;;9.53;4.05;;;;;;;0.52;100.00;100053.84;1715034;81;21074;-74
2022/12/29 03:05:02;;;;;;;7.58;3.90;;;;;;;0.52;100.00;100045.80;1724984;83;21090;-74
2022/12/29 03:08:11;;;;;;;8.38;4.37;;;;;;;0.49;100.00;100047.88;1727867;83;21058;-75
2022/12/29 03:10:54;;;;;;;9.70;4.35;;;;;;;0.45;100.00;100054.65;1724206;83;21062;-74
2022/12/29 03:16:36;;;;;;;7.42;4.10;;;;;;;0.39;100.00;100045.25;1685277;85;21175;-75
2022/12/29 03:19:14;;;;;;;9.05;4.75;;;;;;;0.32;100.00;100037.15;1677485;85;21531;-75
2022/12/29 03:24:39;;;;;;;7.45;4.20;;;;;;;0.27;100.00;100031.58;1684379;85;21554;-74
2022/12/29 03:27:06;;;;;;;7.03;3.92;;;;;;;0.22;100.00;100025.98;1678459;84;21022;-75
2022/12/29 03:29:39;;;;;;;9.43;3.95;;;;;;;0.21;100.00;100028.36;1666907;85;21086;-75
2022/12/29 03:32:05;;;;;;;10.88;4.53;;;;;;;0.19;100.00;100027.72;1653478;85;21534;-75
2022/12/29 03:34:31;;;;;;;9.45;4.47;;;;;;;0.18;100.00;100030.07;1686604;83;21094;-75
2022/12/29 03:37:13;;;;;;;9.28;4.62;;;;;;;0.18;100.00;100023.37;1681144;84;21033;-75
2022/12/29 03:39:39;;;;;;;8.30;4.12;;;;;;;0.17;100.00;100023.59;1633026;86;21043;-75
2022/12/29 03:42:08;;;;;;;11.20;4.72;;;;;;;0.16;100.00;100024.11;1653280;85;21613;-75
2022/12/29 03:44:37;;;;;;;8.93;4.50;;;;;;;0.17;100.00;100031.62;1655725;85;21056;-75
2022/12/29 03:47:04;;;;;;;7.65;4.42;;;;;;;0.15;100.00;100030.98;1673343;84;21015;-75
2022/12/29 03:49:31;;;;;;;8.55;4.95;;;;;;;0.13;100.00;100029.03;1684442;84;21039;-75
2022/12/29 03:51:57;;;;;;;10.20;4.95;;;;;;;0.13;100.00;100027.69;1651831;85;21100;-75
2022/12/29 03:54:24;;;;;;;7.60;4.10;;;;;;;0.12;100.00;100021.50;1677761;84;21079;-74
2022/12/29 03:56:51;;;;;;;8.58;3.75;;;;;;;0.10;100.00;100014.20;1680239;84;21786;-75
2022/12/29 03:59:20;;;;;;;9.28;4.67;;;;;;;0.08;100.00;100015.39;1677028;84;21128;-75
2022/12/29 04:01:47;;;;;;;8.13;4.20;;;;;;;0.07;100.00;100012.42;1684953;84;21046;-74
2022/12/29 04:04:13;;;;;;;;;;;;;;;0.07;100.00;100017.27;1677288;84;21094;-75
2022/12/29 04:06:40;;;;;;;8.10;4.17;;;;;;;0.07;100.00;100009.75;1680676;84;20139;-74
2022/12/29 04:09:10;;;;;;;9.30;4.67;;;;;;;0.02;100.00;100017.02;1678907;83;21385;-74
2022/12/29 04:11:38;;;;;;;10.48;4.55;;;;;;;0.01;100.00;100019.38;1675169;84;21067;-73
2022/12/29 04:14:05;;;;;;;8.48;4.22;;;;;;;0.03;100.00;100014.66;1654267;84;21130;-73
2022/12/29 04:16:38;;;;;;;10.40;4.70;;;;;;;0.06;100.00;100016.11;1671244;84;21097;-74
2022/12/29 04:19:03;;;;;;;8.43;4.55;;;;;;;0.07;100.00;100012.42;1671999;84;21080;-72
2022/12/29 04:21:30;;;;;;;9.75;5.05;;;;;;;0.07;100.00;100019.95;1666993;84;21067;-73
2022/12/29 04:23:57;;;;;;;12.47;4.53;;;;;;;0.11;100.00;100016.36;1674201;84;21046;-73
2022/12/29 04:26:25;;;;;;;8.70;5.08;;;;;;;0.11;100.00;100022.52;1666555;84;21075;-73
2022/12/29 04:28:56;;;;;;;8.75;4.62;;;;;;;0.14;100.00;100023.48;1642388;86;21653;-74
2022/12/29 04:31:27;;;;;;;10.98;5.70;;;;;;;0.15;100.00;100015.75;1676388;84;21111;-74
2022/12/29 04:33:56;;;;;;;9.53;5.75;;;;;;;0.17;100.00;100019.58;1677959;84;21186;-74
2022/12/29 04:36:23;;;;;;;13.38;5.75;;;;;;;0.17;100.00;100024.42;1652108;85;21095;-74
2022/12/29 04:38:49;;;;;;;8.20;4.87;;;;;;;0.18;100.00;100015.89;1681633;85;21035;-74
2022/12/29 04:41:16;;;;;;;;;;;;;;;0.17;100.00;100017.73;1679234;85;21031;-75
2022/12/29 04:43:44;;;;;;;8.75;5.10;;;;;;;0.15;100.00;100021.10;1670584;84;20112;-76
2022/12/29 04:46:13;;;;;;;10.43;5.15;;;;;;;0.11;100.00;100017.16;1677591;85;21074;-76
2022/12/29 04:48:45;;;;;;;9.25;4.78;;;;;;;0.06;100.00;100015.61;1668711;84;21613;-76
2022/12/29 04:51:32;;;;;;;9.73;5.00;;;;;;;0.06;100.00;100018.79;1674616;85;21376;-75
2022/12/29 04:53:59;;;;;;;9.83;5.03;;;;;;;0.03;100.00;100013.33;1672654;84;21098;-74
2022/12/29 04:56:27;;;;;;;10.60;5.47;;;;;;;0.00;100.00;100017.74;1646938;84;21035;-74
2022/12/29 04:58:53;;;;;;;9.68;5.03;;;;;;;-0.02;100.00;100017.92;1687968;83;21130;-74
2022/12/29 05:01:20;;;;;;;11.40;5.80;;;;;;;-0.05;100.00;100017.49;1689017;84;21070;-74
2022/12/29 05:03:47;;;;;;;;;;;;;;;-0.07;100.00;100019.52;1665997;84;21076;-74
2022/12/29 05:06:13;;;;;;;11.53;5.50;;;;;;;-0.08;100.00;100013.87;1614079;86;20245;-74
2022/12/29 05:08:40;;;;;;;12.75;5.65;;;;;;;-0.15;100.00;100013.00;1674049;84;21063;-73
2022/12/29 05:11:06;;;;;;;10.75;5.70;;;;;;;-0.14;100.00;100007.95;1675062;84;21565;-74
2022/12/29 05:13:32;;;;;;;10.78;5.53;;;;;;;-0.17;100.00;100002.48;1663485;85;21105;-74
2022/12/29 05:15:59;;;;;;;9.33;5.50;;;;;;;-0.17;100.00;99996.30;1675449;85;22195;-73
2022/12/29 05:18:27;;;;;;;9.78;5.42;;;;;;;-0.19;100.00;99998.36;1682655;85;21099;-73
2022/12/29 05:20:54;;;;;;;10.03;6.10;;;;;;;-0.19;100.00;100013.91;1678237;84;21066;-74
2022/12/29 05:23:21;;;;;;;10.90;6.08;;;;;;;-0.21;100.00;100009.75;1624302;85;21123;-74
2022/12/29 05:25:49;;;;;;;10.58;6.30;;;;;;;-0.20;100.00;100010.08;1683872;83;21720;-73
2022/12/29 05:28:21;;;;;;;10.50;5.53;;;;;;;-0.22;100.00;100012.97;1671164;85;21067;-73
2022/12/29 05:31:02;;;;;;;13.88;5.65;;;;;;;-0.18;100.00;100002.70;1668218;85;21802;-73
2022/12/29 05:33:29;;;;;;;11.95;6.00;;;;;;;-0.17;100.00;100012.36;1669436;84;21085;-74
2022/12/29 05:36:07;;;;;;;10.05;5.42;;;;;;;-0.17;100.00;100012.36;1669639;86;21122;-74
2022/12/29 05:38:34;;;;;;;10.60;6.20;;;;;;;-0.14;100.00;100008.78;1675651;85;21098;-74
2022/12/29 05:41:01;;;;;;;12.58;6.35;;;;;;;-0.12;100.00;100008.09;1672618;84;21877;-73
2022/12/29 05:43:30;;;;;;;10.15;6.20;;;;;;;-0.10;100.00;100003.86;1637565;85;21501;-74
2022/12/29 05:46:17;;;;;;;9.55;5.80;;;;;;;-0.08;100.00;99994.63;1671203;85;21101;-74
2022/12/29 15:57:59;;;;;;;17.25;11.12;;;;;;;0.88;100.00;99869.47;1784294;78;22926;-77
2022/12/29 16:00:35;;;;;;;18.25;10.38;;;;;;;0.93;100.00;99869.66;1730185;81;21102;-77
2022/12/29 16:03:05;;;;;;;17.00;9.40;;;;;;;1.14;100.00;99873.47;1732196;78;81448;-77
2022/12/29 16:05:39;;;;;;;15.90;9.08;;;;;;;1.31;100.00;99868.52;1742081;82;20981;-77
2022/12/29 16:08:36;;;;;;;15.72;9.63;;;;;;;1.45;100.00;99863.44;1723839;83;21109;-76
2022/12/29 16:11:24;;;;;;;16.65;10.13;;;;;;;1.57;100.00;99867.10;1723417;81;21504;-78
2022/12/29 16:13:52;;;;;;;16.52;10.58;;;;;;;1.61;100.00;99862.14;1732444;80;21073;-78
2022/12/29 16:16:27;;;;;;;17.87;10.98;;;;;;;1.64;100.00;99853.15;1730129;83;21089;-78
2022/12/29 16:18:53;;;;;;;17.42;10.93;;;;;;;1.71;100.00;99851.27;1729469;83;21074;-77
2022/12/29 16:21:26;;;;;;;18.67;11.57;;;;;;;1.83;100.00;99853.61;1731891;82;21065;-77
2022/12/29 16:23:55;;;;;;;20.75;11.93;;;;;;;1.88;100.00;99841.70;1736758;82;21718;-78
2022/12/29 16:26:22;;;;;;;20.27;12.28;;;;;;;1.88;100.00;99846.24;1735086;81;21568;-78
2022/12/29 16:28:51;;;;;;;23.38;14.20;;;;;;;1.88;100.00;99838.19;1773699;79;21039;-78
2022/12/29 16:31:22;;;;;;;18.35;11.57;;;;;;;1.90;100.00;99834.80;1757817;81;21036;-81
2022/12/29 16:33:53;;;;;;;14.80;10.25;;;;;;;1.98;100.00;99837.24;1724136;83;21098;-80
2022/12/29 16:36:30;;;;;;;17.48;10.43;;;;;;;2.03;100.00;99831.20;1750023;80;21054;-79
2022/12/29 16:39:27;;;;;;;16.32;10.25;;;;;;;1.99;100.00;99834.33;1698157;83;21106;-79
2022/12/29 16:41:54;;;;;;;20.52;10.85;;;;;;;1.96;100.00;99828.05;1747924;82;21011;-79
2022/12/29 16:44:28;;;;;;;18.87;11.12;;;;;;;1.92;100.00;99831.36;1736419;82;21069;-79
2022/12/29 16:47:15;;;;;;;15.28;10.68;;;;;;;1.93;100.00;99824.45;1771353;79;21031;-79
2022/12/29 16:49:44;;;;;;;17.67;10.53;;;;;;;1.98;100.00;99820.59;1774561;80;20987;-79
2022/12/29 16:52:16;;;;;;;15.55;10.58;;;;;;;1.94;100.00;99825.28;1755110;81;21101;-80
2022/12/29 16:54:43;;;;;;;16.23;10.08;;;;;;;1.87;100.00;99823.14;1738571;81;21062;-78
2022/12/29 16:57:10;;;;;;;17.27;10.78;;;;;;;1.84;100.00;99824.37;1713566;79;21194;-79
2022/12/29 16:59:42;;;;;;;;;;;;;;;1.86;100.00;99821.48;1750949;81;21210;-79
2022/12/29 17:02:16;;;;;;;17.92;10.95;;;;;;;1.87;100.00;99816.43;1724905;80;20836;-78
2022/12/29 17:04:48;;;;;;;20.02;11.00;;;;;;;1.74;100.00;99819.98;1737441;81;21005;-78
2022/12/29 17:07:22;;;;;;;18.95;10.78;;;;;;;1.69;100.00;99826.52;1738995;81;21093;-76
2022/12/29 17:09:49;;;;;;;16.87;10.95;;;;;;;1.70;100.00;99806.67;1741695;81;21048;-76
2022/12/29 17:12:22;;;;;;;14.98;9.85;;;;;;;1.71;100.00;99816.38;1730214;81;21074;-76
2022/12/29 17:15:12;;;;;;;17.02;10.98;;;;;;;1.67;100.00;99813.81;1716850;81;20978;-76
2022/12/29 17:17:42;;;;;;;19.52;10.60;;;;;;;1.62;100.00;99810.96;1711450;81;21121;-78
2022/12/29 17:20:28;;;;;;;17.98;10.38;;;;;;;1.62;100.00;99801.57;1756980;81;20997;-76
2022/12/29 17:22:55;;;;;;;18.27;11.43;;;;;;;1.60;100.00;99807.64;1757710;80;21067;-76
2022/12/29 17:25:36;;;;;;;17.10;10.70;;;;;;;1.55;100.00;99813.36;1758881;80;21512;-76
2022/12/29 17:28:19;;;;;;;20.27;10.48;;;;;;;1.53;100.00;99808.19;1759736;81;21093;-77
2022/12/29 17:30:46;;;;;;;16.57;9.93;;;;;;;1.56;100.00;99797.57;1753971;81;21007;-77
2022/12/29 17:33:15;;;;;;;18.65;9.93;;;;;;;1.50;100.00;99801.39;1740053;81;21647;-75
2022/12/29 17:35:43;;;;;;;16.93;10.32;;;;;;;1.44;100.00;99810.81;1731715;81;21051;-78
2022/12/29 17:38:30;;;;;;;17.02;10.72;;;;;;;1.44;100.00;99810.30;1708015;83;21133;-77
2022/12/29 17:40:57;;;;;;;14.80;9.10;;;;;;;1.44;100.00;99804.94;1731929;82;21010;-76
2022/12/29 17:43:24;;;;;;;15.68;9.95;;;;;;;1.37;100.00;99804.64;1765641;80;21829;-75
2022/12/29 17:45:53;;;;;;;17.73;10.32;;;;;;;1.36;100.00;99797.62;1773727;80;22226;-77
2022/12/29 17:48:24;;;;;;;18.32;10.80;;;;;;;1.41;100.00;99806.70;1748059;80;21670;-77
2022/12/29 17:50:52;;;;;;;15.20;10.03;;;;;;;1.37;100.00;99796.59;1772607;80;21077;-76
2022/12/29 17:53:22;;;;;;;17.55;10.55;;;;;;;1.34;100.00;99803.72;1793060;78;21038;-77
2022/12/29 17:55:49;;;;;;;17.40;12.00;;;;;;;1.38;100.00;99799.05;1792199;80;21061;-77
2022/12/29 17:58:19;;;;;;;17.12;10.58;;;;;;;1.42;100.00;99802.96;1785138;78;21061;-77
2022/12/29 18:00:51;;;;;;;18.17;10.85;;;;;;;1.41;100.00;99811.23;1767361;80;21022;-77
2022/12/29 18:03:24;;;;;;;17.62;10.88;;;;;;;1.42;100.00;99801.62;1791629;78;21050;-77
2022/12/29 18:05:52;;;;;;;46.65;23.77;;;;;;;1.47;100.00;99804.50;1789135;80;21509;-77
2022/12/29 18:08:19;;;;;;;34.13;19.00;;;;;;;1.46;100.00;99805.53;1740634;81;21111;-76
2022/12/29 18:10:46;;;;;;;23.62;16.52;;;;;;;1.46;100.00;99798.00;1782357;80;21081;-77
2022/12/29 18:13:24;;;;;;;;;;;;;;;1.50;100.00;99800.05;1794212;78;21074;-78
2022/12/29 18:15:52;;;;;;;27.62;16.87;;;;;;;1.56;100.00;99799.71;1738853;81;20149;-77
2022/12/29 18:18:20;;;;;;;20.77;15.08;;;;;;;1.38;100.00;99787.52;1760048;80;21065;-75
2022/12/29 18:20:49;;;;;;;19.75;13.48;;;;;;;1.45;100.00;99801.19;1756799;80;21073;-74
2022/12/29 18:23:30;;;;;;;19.25;13.32;;;;;;;1.51;100.00;99795.52;1757548;80;21107;-76
2022/12/29 18:26:06;;;;;;;26.35;14.75;;;;;;;1.59;100.00;99795.29;1769873;80;21007;-75
2022/12/29 18:28:33;;;;;;;20.52;13.72;;;;;;;1.61;100.00;99788.35;1731680;81;21148;-74
2022/12/29 18:31:00;;;;;;;24.35;15.03;;;;;;;1.64;100.00;99789.27;1741282;81;20999;-75
2022/12/29 18:33:27;;;;;;;26.75;15.85;;;;;;;1.70;100.00;99780.38;1742737;81;21090;-75
2022/12/29 18:35:58;;;;;;;;;;;;;;;1.81;100.00;99788.56;1718069;81;20989;-76
2022/12/29 18:38:25;;;;;;;18.87;12.15;;;;;;;1.84;100.00;99784.11;1754972;80;20137;-76
2022/12/29 18:40:52;;;;;;;20.92;12.78;;;;;;;1.80;100.00;99786.94;1735787;81;21545;-76
2022/12/29 18:43:19;;;;;;;18.10;11.57;;;;;;;1.87;100.00;99794.95;1701547;84;21604;-76
2022/12/29 18:45:45;;;;;;;17.25;10.60;;;;;;;1.96;100.00;99790.97;1746112;81;21031;-76
2022/12/29 18:48:12;;;;;;;;;;;;;;;1.97;100.00;99797.48;1758064;80;21600;-75
2022/12/29 18:50:39;;;;;;;18.20;10.95;;;;;;;1.99;100.00;99791.37;1744478;81;20143;-76
2022/12/29 18:53:05;;;;;;;18.57;10.72;;;;;;;1.97;100.00;99784.58;1733765;81;21106;-74
2022/12/29 18:55:33;;;;;;;15.00;10.43;;;;;;;2.03;100.00;99787.73;1733602;82;21024;-76
2022/12/29 18:57:59;;;;;;;;;;;;;;;2.03;100.00;99789.59;1680649;81;22004;-75
2022/12/29 19:00:25;;;;;;;13.15;9.35;;;;;;;2.00;100.00;99787.66;1739643;81;20162;-75
2022/12/29 19:02:52;;;;;;;;;;;;;;;1.99;100.00;99794.56;1731937;81;21063;-75
2022/12/29 19:05:25;;;;;;;15.15;8.83;;;;;;;2.10;100.00;99797.92;1747404;81;20146;-74
2022/12/29 19:07:51;;;;;;;16.90;9.78;;;;;;;2.06;100.00;99796.70;1748024;80;21089;-75
2022/12/29 19:10:19;;;;;;;16.12;10.15;;;;;;;2.06;100.00;99794.52;1753997;81;21641;-75
2022/12/29 19:12:45;;;;;;;13.15;9.33;;;;;;;2.07;100.00;99779.55;1742926;81;21044;-75
2022/12/29 19:15:26;;;;;;;15.30;10.25;;;;;;;2.19;100.00;99780.52;1743021;82;21594;-75
2022/12/29 19:17:54;;;;;;;18.90;10.75;;;;;;;2.21;100.00;99781.63;1737637;81;21149;-74
2022/12/29 19:20:39;;;;;;;13.43;9.25;;;;;;;2.19;100.00;99785.89;1733910;81;21007;-74
2022/12/29 19:23:15;;;;;;;14.65;9.18;;;;;;;2.21;100.00;99787.84;1722233;81;21089;-74
2022/12/29 19:25:42;;;;;;;14.90;10.18;;;;;;;2.23;100.00;99789.77;1728297;81;21047;-75
2022/12/29 19:28:18;;;;;;;17.85;10.88;;;;;;;2.19;100.00;99791.27;1724287;82;21161;-74
2022/12/29 19:30:46;;;;;;;;;;;;;;;2.18;100.00;99790.95;1741923;81;21176;-74
2022/12/29 19:33:13;;;;;;;22.10;12.63;;;;;;;2.19;100.00;99789.09;1755735;80;20460;-74
2022/12/29 19:35:40;;;;;;;;;;;;;;;2.14;100.00;99782.20;1757132;81;21547;-74
2022/12/29 19:38:06;;;;;;;18.60;10.70;;;;;;;2.09;100.00;99785.52;1747227;80;20165;-75
2022/12/29 19:40:33;;;;;;;16.97;11.05;;;;;;;2.00;100.00;99791.68;1733605;81;21081;-74
2022/12/29 19:43:00;;;;;;;15.50;9.80;;;;;;;2.02;100.00;99783.94;1697738;84;21653;-76
2022/12/29 19:45:27;;;;;;;23.02;12.95;;;;;;;2.08;100.00;99779.87;1717362;83;21046;-75
2022/12/29 19:47:54;;;;;;;17.95;11.80;;;;;;;2.08;100.00;99783.89;1733118;81;21069;-75
2022/12/29 19:50:22;;;;;;;25.30;14.53;;;;;;;2.06;100.00;99783.78;1758116;81;21711;-74
2022/12/29 19:52:49;;;;;;;17.48;11.12;;;;;;;2.02;100.00;99788.77;1719633;81;21161;-74
2022/12/29 19:55:16;;;;;;;21.55;12.65;;;;;;;2.05;100.00;99776.79;1726936;81;21019;-75
2022/12/29 19:57:44;;;;;;;25.23;15.75;;;;;;;2.10;100.00;99787.69;1737962;81;21617;-74
2022/12/29 20:00:12;;;;;;;19.65;11.57;;;;;;;2.06;100.00;99784.61;1755906;81;21562;-75
2022/12/29 20:02:39;;;;;;;19.87;13.20;;;;;;;2.03;100.00;99784.22;1722202;81;21070;-75
2022/12/29 20:05:07;;;;;;;;;;;;;;;2.04;100.00;99784.02;1730957;81;21133;-74
2022/12/29 20:07:34;;;;;;;;;;;;;;;2.09;100.00;99776.67;1744226;81;20346;-76
2022/12/29 20:10:01;;;;;;;16.23;10.35;;;;;;;1.99;100.00;99774.43;1740739;82;20126;-76
2022/12/29 20:12:27;;;;;;;15.83;10.30;;;;;;;1.90;100.00;99771.70;1697817;82;21626;-76
2022/12/29 20:14:55;;;;;;;13.80;9.23;;;;;;;1.94;100.00;99771.58;1699326;83;21119;-76
2022/12/29 20:17:22;;;;;;;16.37;10.58;;;;;;;2.02;100.00;99767.83;1694869;83;21835;-75
2022/12/29 20:19:48;;;;;;;16.50;10.98;;;;;;;2.01;100.00;99777.73;1710174;83;21627;-74
2022/12/29 20:22:14;;;;;;;15.43;9.18;;;;;;;1.99;100.00;99772.57;1738331;80;21752;-75
2022/12/29 20:24:41;;;;;;;15.13;9.83;;;;;;;2.03;100.00;99774.31;1750796;81;21026;-75
2022/12/29 20:27:08;;;;;;;;;;;;;;;2.09;100.00;99771.30;1750497;81;21059;-75
2022/12/29 20:29:38;;;;;;;15.05;9.58;;;;;;;2.09;100.00;99766.72;1739681;82;20771;-74
2022/12/29 20:32:08;;;;;;;16.67;9.30;;;;;;;2.02;100.00;99771.86;1738740;81;21546;-76
2022/12/29 20:34:35;;;;;;;18.00;11.70;;;;;;;2.05;100.00;99783.50;1700163;82;21085;-73
2022/12/29 20:37:02;;;;;;;19.15;12.82;;;;;;;2.10;100.00;99785.00;1726566;81;21039;-72
2022/12/29 20:39:30;;;;;;;19.10;11.28;;;;;;;2.08;100.00;99786.58;1726061;81;21685;-74
2022/12/29 20:41:57;;;;;;;15.85;9.63;;;;;;;2.08;100.00;99786.58;1725623;82;21345;-73
2022/12/29 20:44:26;;;;;;;13.68;9.55;;;;;;;2.12;100.00;99786.45;1746242;81;21093;-74
2022/12/29 20:46:53;;;;;;;16.12;10.00;;;;;;;2.14;100.00;99777.66;1733896;81;21014;-73
2022/12/29 20:49:21;;;;;;;12.85;8.25;;;;;;;2.14;100.00;99775.48;1722010;82;21047;-73
2022/12/29 20:51:48;;;;;;;13.72;9.10;;;;;;;2.10;100.00;99767.55;1691133;84;21092;-73
2022/12/29 20:54:15;;;;;;;13.95;9.48;;;;;;;2.14;100.00;99768.25;1737836;81;21119;-74
2022/12/29 20:56:42;;;;;;;14.53;9.03;;;;;;;2.17;100.00;99770.50;1728658;81;21078;-73
2022/12/29 20:59:09;;;;;;;15.13;9.98;;;;;;;2.16;100.00;99770.19;1726190;81;21118;-73
2022/12/29 21:01:36;;;;;;;14.03;9.23;;;;;;;2.15;100.00;99771.25;1738363;81;21051;-73
2022/12/29 21:04:02;;;;;;;14.13;9.75;;;;;;;2.19;100.00;99763.59;1729408;80;21058;-74
2022/12/29 21:06:29;;;;;;;12.80;9.65;;;;;;;2.25;100.00;99760.02;1730913;81;21049;-74
2022/12/29 21:08:56;;;;;;;18.45;11.20;;;;;;;2.26;100.00;99755.79;1738389;81;21097;-73
2022/12/29 21:11:22;;;;;;;;;;;;;;;2.25;100.00;99755.99;1710097;83;21568;-73
2022/12/29 21:13:48;;;;;;;17.65;8.95;;;;;;;2.24;100.00;99753.82;1708916;83;20444;-73
2022/12/29 21:16:17;;;;;;;14.45;8.90;;;;;;;2.24;100.00;99748.97;1759225;81;21518;-74
2022/12/29 21:18:43;;;;;;;22.07;14.05;;;;;;;2.29;100.00;99753.18;1754197;80;21067;-73
2022/12/29 21:21:17;;;;;;;28.02;17.17;;;;;;;2.28;100.00;99751.52;1758050;80;21018;-73
2022/12/29 21:23:43;;;;;;;19.07;11.03;;;;;;;2.26;100.00;99749.59;1757093;80;21469;-73
2022/12/29 21:26:12;;;;;;;17.80;10.23;;;;;;;2.28;100.00;99755.55;1754960;81;20978;-74
2022/12/29 21:28:40;;;;;;;14.55;9.70;;;;;;;2.30;100.00;99761.00;1760137;80;21042;-73
2022/12/29 21:31:24;;;;;;;15.20;8.90;;;;;;;2.26;100.00;99759.81;1761041;80;20973;-72
2022/12/29 21:33:51;;;;;;;16.23;9.68;;;;;;;2.24;100.00;99750.31;1760135;80;21092;-73
2022/12/29 21:36:18;;;;;;;15.60;8.85;;;;;;;2.27;100.00;99753.90;1760132;81;20958;-73
2022/12/29 21:38:44;;;;;;;13.22;8.48;;;;;;;2.32;100.00;99757.59;1782574;80;21050;-73
2022/12/29 21:41:13;;;;;;;12.33;8.95;;;;;;;2.31;100.00;99758.63;1793197;80;20991;-73
2022/12/29 21:43:40;;;;;;;13.32;9.30;;;;;;;2.29;100.00;99756.69;1767440;80;21054;-73
2022/12/29 21:46:06;;;;;;;15.10;9.38;;;;;;;2.29;100.00;99748.63;1760030;81;21498;-73
2022/12/29 21:48:33;;;;;;;15.40;8.88;;;;;;;2.33;100.00;99748.50;1773532;80;21046;-73
2022/12/29 21:56:45;;;;;;;11.50;7.05;;;;;;;2.28;100.00;99755.04;1758271;80;21011;-72
2022/12/29 22:12:59;;;;;;;14.68;8.68;;;;;;;2.15;100.00;99743.56;1758951;80;21062;-73
2022/12/29 22:15:29;;;;;;;16.27;9.43;;;;;;;2.08;100.00;99747.64;1760517;80;21005;-73
2022/12/29 22:17:55;;;;;;;13.45;8.78;;;;;;;2.01;100.00;99745.52;1765882;80;21112;-74
2022/12/29 22:20:26;;;;;;;14.75;9.15;;;;;;;1.97;100.00;99744.30;1757543;81;21088;-73
2022/12/29 22:22:52;;;;;;;15.23;9.25;;;;;;;1.99;100.00;99742.21;1761665;81;21114;-73
2022/12/29 22:25:19;;;;;;;;;;;;;;;1.94;100.00;99742.05;1786251;80;21006;-72
2022/12/29 22:27:45;;;;;;;15.90;9.38;;;;;;;1.88;100.00;99738.87;1775617;78;20103;-73
2022/12/29 22:30:12;;;;;;;13.32;8.83;;;;;;;1.74;100.00;99736.78;1772262;80;21043;-73
2022/12/29 22:32:38;;;;;;;15.23;9.20;;;;;;;1.78;100.00;99739.34;1708576;82;21129;-73
2022/12/29 22:35:05;;;;;;;15.83;9.18;;;;;;;1.75;100.00;99741.63;1760782;80;21006;-73
2022/12/29 22:37:33;;;;;;;13.32;8.98;;;;;;;1.67;100.00;99742.70;1734241;81;21094;-73
2022/12/29 22:39:59;;;;;;;14.07;8.35;;;;;;;1.66;100.00;99732.20;1760365;81;20982;-71
2022/12/29 22:42:26;;;;;;;13.60;8.20;;;;;;;1.67;100.00;99733.82;1759261;80;21113;-72
2022/12/29 22:44:52;;;;;;;13.78;8.85;;;;;;;1.66;100.00;99737.56;1752845;82;21021;-73
2022/12/29 22:47:18;;;;;;;13.30;8.48;;;;;;;1.60;100.00;99741.08;1760154;80;21029;-72